createdAt,value
2023-05-18T00:00:10.971Z,7.60
2023-05-18T00:02:38.405Z,7.50
2023-05-18T00:05:08.236Z,7.60
2023-05-18T00:07:35.113Z,7.60
2023-05-18T00:10:02.148Z,7.60
2023-05-18T00:12:29.287Z,7.60
2023-05-18T00:14:56.438Z,7.60
2023-05-18T00:17:23.537Z,7.60
2023-05-18T00:19:50.739Z,7.50
2023-05-18T00:22:19.349Z,7.40
2023-05-18T00:24:46.733Z,7.40
2023-05-18T00:27:14.280Z,7.30
2023-05-18T00:29:41.211Z,7.20
2023-05-18T00:32:08.211Z,7.20
2023-05-18T00:34:37.353Z,7.30
2023-05-18T00:37:04.502Z,7.40
2023-05-18T00:39:32.785Z,7.40
2023-05-18T00:41:59.723Z,7.60
2023-05-18T00:44:26.630Z,7.50
2023-05-18T00:46:53.524Z,7.60
2023-05-18T00:49:20.686Z,7.60
2023-05-18T00:51:48.243Z,7.60
2023-05-18T00:54:15.960Z,7.50
2023-05-18T00:56:46.288Z,7.50
2023-05-18T00:59:13.451Z,7.50
2023-05-18T01:01:46.906Z,7.50
2023-05-18T01:04:14.466Z,7.40
2023-05-18T01:06:42.425Z,7.30
2023-05-18T01:09:12.074Z,7.30
2023-05-18T01:11:49.434Z,7.30
2023-05-18T01:14:19.846Z,7.30
2023-05-18T01:16:54.663Z,7.20
2023-05-18T01:19:56.993Z,7.20
2023-05-18T01:22:37.703Z,7.20
2023-05-18T01:25:10.471Z,7.10
2023-05-18T01:27:42.340Z,7.00
2023-05-18T01:30:10.245Z,7.00
2023-05-18T01:32:40.738Z,7.00
2023-05-18T01:35:08.436Z,7.10
2023-05-18T01:37:35.590Z,7.20
2023-05-18T01:40:05.465Z,7.30
2023-05-18T01:42:37.819Z,7.30
2023-05-18T01:45:15.266Z,7.30
2023-05-18T01:47:45.040Z,7.40
2023-05-18T01:50:16.892Z,7.40
2023-05-18T01:52:48.134Z,7.40
2023-05-18T01:55:17.165Z,7.40
2023-05-18T01:57:46.470Z,7.40
2023-05-18T02:00:18.679Z,7.50
2023-05-18T02:02:47.344Z,7.50
2023-05-18T02:05:17.797Z,7.50
2023-05-18T02:07:47.300Z,7.50
2023-05-18T02:10:14.795Z,7.50
2023-05-18T02:12:42.026Z,7.50
2023-05-18T02:15:10.176Z,7.50
2023-05-18T02:17:39.035Z,7.40
2023-05-18T02:20:07.756Z,7.30
2023-05-18T02:22:34.882Z,7.20
2023-05-18T02:25:02.365Z,7.10
2023-05-18T02:27:29.275Z,7.00
2023-05-18T02:29:56.740Z,7.00
2023-05-18T02:32:24.239Z,7.00
2023-05-18T02:34:53.575Z,7.00
2023-05-18T02:37:23.053Z,7.00
2023-05-18T02:39:50.517Z,6.90
2023-05-18T02:42:17.481Z,6.90
2023-05-18T02:44:44.466Z,6.90
2023-05-18T02:47:14.793Z,6.90
2023-05-18T02:49:41.741Z,6.80
2023-05-18T02:52:10.445Z,6.60
2023-05-18T02:54:37.474Z,6.60
2023-05-18T02:57:08.189Z,6.60
2023-05-18T02:59:44.721Z,6.60
2023-05-18T03:02:14.353Z,6.70
2023-05-18T03:04:41.849Z,6.60
2023-05-18T03:07:10.561Z,6.60
2023-05-18T03:09:38.112Z,6.60
2023-05-18T03:12:06.640Z,6.60
2023-05-18T03:14:34.535Z,6.50
2023-05-18T03:17:06.070Z,6.50
2023-05-18T03:19:34.984Z,6.50
2023-05-18T03:22:02.145Z,6.50
2023-05-18T03:24:40.027Z,6.40
2023-05-18T03:27:10.202Z,6.40
2023-05-18T03:29:37.348Z,6.30
2023-05-18T03:32:05.142Z,6.20
2023-05-18T03:34:32.757Z,6.20
2023-05-18T03:36:59.862Z,6.10
2023-05-18T03:39:26.844Z,6.20
2023-05-18T03:41:55.297Z,6.30
2023-05-18T03:44:22.658Z,6.30
2023-05-18T03:46:49.674Z,6.40
2023-05-18T03:49:17.048Z,6.40
2023-05-18T03:51:44.123Z,6.40
2023-05-18T03:54:11.370Z,6.40
2023-05-18T03:56:38.301Z,6.50
2023-05-18T03:59:06.633Z,6.50
2023-05-18T04:01:34.011Z,6.50
2023-05-18T04:04:01.031Z,6.60
2023-05-18T04:06:27.960Z,6.60
2023-05-18T04:08:55.170Z,6.60
2023-05-18T04:11:22.538Z,6.70
2023-05-18T04:13:50.859Z,6.70
2023-05-18T04:16:19.535Z,6.70
2023-05-18T04:18:46.529Z,6.80
2023-05-18T04:21:13.471Z,6.80
2023-05-18T04:23:40.990Z,6.80
2023-05-18T04:26:09.034Z,6.80
2023-05-18T04:28:37.675Z,6.80
2023-05-18T04:31:05.039Z,6.90
2023-05-18T04:33:34.122Z,6.90
2023-05-18T04:36:04.866Z,6.90
2023-05-18T04:38:34.460Z,7.00
2023-05-18T04:41:07.239Z,7.00
2023-05-18T04:43:36.454Z,7.10
2023-05-18T04:46:03.469Z,7.10
2023-05-18T04:48:33.750Z,7.10
2023-05-18T04:51:04.877Z,7.10
2023-05-18T04:53:33.549Z,7.20
2023-05-18T04:56:00.994Z,7.20
2023-05-18T04:58:29.310Z,7.20
2023-05-18T05:00:57.791Z,7.20
2023-05-18T05:03:24.966Z,7.30
2023-05-18T05:05:53.259Z,7.30
2023-05-18T05:08:20.218Z,7.30
2023-05-18T05:10:47.311Z,7.30
2023-05-18T05:13:14.923Z,7.30
2023-05-18T05:15:42.000Z,7.40
2023-05-18T05:18:08.998Z,7.50
2023-05-18T05:20:36.208Z,7.60
2023-05-18T05:23:04.595Z,7.70
2023-05-18T05:25:32.576Z,7.70
2023-05-18T05:27:59.708Z,7.70
2023-05-18T05:30:27.739Z,7.80
2023-05-18T05:32:54.860Z,7.80
2023-05-18T05:35:21.911Z,7.90
2023-05-18T05:37:49.201Z,7.90
2023-05-18T05:40:18.676Z,8.00
2023-05-18T05:42:46.588Z,8.00
2023-05-18T05:45:13.882Z,8.10
2023-05-18T05:47:49.432Z,8.10
2023-05-18T05:50:17.923Z,8.20
2023-05-18T05:52:47.685Z,8.30
2023-05-18T05:55:15.786Z,8.30
2023-05-18T05:57:44.109Z,8.30
2023-05-18T06:00:12.906Z,8.40
2023-05-18T06:02:48.805Z,8.50
2023-05-18T06:05:20.370Z,8.50
2023-05-18T06:07:48.012Z,8.60
2023-05-18T06:10:15.060Z,8.70
2023-05-18T06:12:42.124Z,8.80
2023-05-18T06:15:11.562Z,8.80
2023-05-18T06:17:40.598Z,8.80
2023-05-18T06:20:09.001Z,8.90
2023-05-18T06:22:36.513Z,9.00
2023-05-18T06:25:18.248Z,9.00
2023-05-18T06:27:57.174Z,9.10
2023-05-18T06:30:39.495Z,9.20
2023-05-18T06:33:13.689Z,9.30
2023-05-18T06:35:41.251Z,9.30
2023-05-18T06:38:08.674Z,9.50
2023-05-18T06:40:36.061Z,9.50
2023-05-18T06:43:03.061Z,9.60
2023-05-18T06:45:45.897Z,9.70
2023-05-18T06:48:18.670Z,9.70
2023-05-18T06:50:46.100Z,9.80
2023-05-18T06:53:13.584Z,9.90
2023-05-18T06:55:40.619Z,10.00
2023-05-18T06:58:07.558Z,10.00
2023-05-18T07:00:34.587Z,10.10
2023-05-18T07:03:04.329Z,10.10
2023-05-18T07:05:31.819Z,10.20
2023-05-18T07:07:58.954Z,10.30
2023-05-18T07:10:26.166Z,10.40
2023-05-18T07:12:53.113Z,10.50
2023-05-18T07:15:20.078Z,10.60
2023-05-18T07:17:47.023Z,10.60
2023-05-18T07:20:15.301Z,10.70
2023-05-18T07:22:42.173Z,10.80
2023-05-18T07:25:09.759Z,10.90
2023-05-18T07:27:36.664Z,11.00
2023-05-18T07:30:04.030Z,11.10
2023-05-18T07:32:30.972Z,11.20
2023-05-18T07:34:58.440Z,11.30
2023-05-18T07:37:26.717Z,11.40
2023-05-18T07:39:53.566Z,11.50
2023-05-18T07:42:20.512Z,11.60
2023-05-18T07:44:47.453Z,11.60
2023-05-18T07:47:14.447Z,11.70
2023-05-18T07:49:41.592Z,11.80
2023-05-18T07:52:08.625Z,11.80
2023-05-18T07:54:37.030Z,12.00
2023-05-18T07:57:04.434Z,12.10
2023-05-18T07:59:31.404Z,12.20
2023-05-18T08:02:00.000Z,12.20
2023-05-18T08:04:26.966Z,12.30
2023-05-18T08:06:55.403Z,12.40
2023-05-18T08:09:22.394Z,12.50
2023-05-18T08:11:51.562Z,12.60
2023-05-18T08:14:18.489Z,12.70
2023-05-18T08:16:45.667Z,12.90
2023-05-18T08:19:12.702Z,13.00
2023-05-18T08:21:39.679Z,13.10
2023-05-18T08:24:07.580Z,13.20
2023-05-18T08:26:34.535Z,13.30
2023-05-18T08:29:09.533Z,13.50
2023-05-18T08:31:36.900Z,13.60
2023-05-18T08:34:04.255Z,13.80
2023-05-18T08:36:31.637Z,13.90
2023-05-18T08:38:58.670Z,14.00
2023-05-18T08:41:29.651Z,14.00
2023-05-18T08:44:03.313Z,14.10
2023-05-18T08:46:34.870Z,14.20
2023-05-18T08:49:04.944Z,14.40
2023-05-18T08:51:35.519Z,14.50
2023-05-18T08:54:03.650Z,14.70
2023-05-18T08:56:33.604Z,14.90
2023-05-18T08:59:08.429Z,15.10
2023-05-18T09:01:35.983Z,15.20
2023-05-18T09:04:04.473Z,15.40
2023-05-18T09:06:33.867Z,15.60
2023-05-18T09:09:04.414Z,15.70
2023-05-18T09:11:35.122Z,15.90
2023-05-18T09:14:02.695Z,15.90
2023-05-18T09:16:32.975Z,16.10
2023-05-18T09:19:00.423Z,16.30
2023-05-18T09:21:27.371Z,16.40
2023-05-18T09:23:54.392Z,16.50
2023-05-18T09:26:22.494Z,16.40
2023-05-18T09:28:53.304Z,16.50
2023-05-18T09:31:21.687Z,16.50
2023-05-18T09:33:51.640Z,16.40
2023-05-18T09:36:25.613Z,16.50
2023-05-18T09:38:53.372Z,16.60
2023-05-18T09:41:20.373Z,16.70
2023-05-18T09:43:48.616Z,16.80
2023-05-18T09:46:15.708Z,17.00
2023-05-18T09:48:44.508Z,17.10
2023-05-18T09:51:16.342Z,17.30
2023-05-18T09:53:47.456Z,17.50
2023-05-18T09:56:17.915Z,17.70
2023-05-18T10:02:37.554Z,17.90
2023-05-18T10:05:05.068Z,18.20
2023-05-18T10:07:34.985Z,18.50
2023-05-18T10:10:03.618Z,18.70
2023-05-18T10:12:30.759Z,19.10
2023-05-18T10:14:57.704Z,19.40
2023-05-18T10:17:26.557Z,19.60
2023-05-18T10:19:55.753Z,20.00
2023-05-18T10:22:23.427Z,20.30
2023-05-18T10:24:52.847Z,20.40
2023-05-18T10:27:26.667Z,20.50
2023-05-18T10:29:55.095Z,20.80
2023-05-18T10:32:25.399Z,21.10
2023-05-18T10:34:54.132Z,21.40
2023-05-18T10:37:23.990Z,21.60
2023-05-18T10:39:54.698Z,21.90
2023-05-18T10:42:23.442Z,22.30
2023-05-18T10:44:52.633Z,22.70
2023-05-18T10:47:20.339Z,22.30
2023-05-18T10:49:48.537Z,22.00
2023-05-18T10:52:17.765Z,21.40
2023-05-18T10:54:45.535Z,21.30
2023-05-18T10:57:16.384Z,21.00
2023-05-18T10:59:46.726Z,20.90
2023-05-18T11:02:18.187Z,20.90
2023-05-18T11:04:47.375Z,20.90
2023-05-18T11:07:14.849Z,20.30
2023-05-18T11:09:42.759Z,20.00
2023-05-18T11:12:14.005Z,19.70
2023-05-18T11:14:49.449Z,19.80
2023-05-18T11:17:18.429Z,19.90
2023-05-18T11:20:17.378Z,19.80
2023-05-18T11:22:49.732Z,19.90
2023-05-18T11:25:44.660Z,19.80
2023-05-18T11:28:13.695Z,19.80
2023-05-18T11:30:51.449Z,20.20
2023-05-18T11:33:30.231Z,20.90
2023-05-18T11:36:09.139Z,21.80
2023-05-18T11:38:48.257Z,22.60
2023-05-18T11:41:32.683Z,23.30
2023-05-18T11:44:22.175Z,23.40
2023-05-18T11:46:56.778Z,23.30
2023-05-18T11:49:26.039Z,22.80
2023-05-18T11:51:58.925Z,22.30
2023-05-18T11:54:26.631Z,22.20
2023-05-18T11:56:54.078Z,22.10
2023-05-18T11:59:32.357Z,22.00
2023-05-18T12:02:01.334Z,21.90
2023-05-18T12:04:30.036Z,21.80
2023-05-18T12:06:58.111Z,21.80
2023-05-18T12:09:25.637Z,21.60
2023-05-18T12:11:52.830Z,21.70
2023-05-18T12:14:21.124Z,21.50
2023-05-18T12:16:50.107Z,21.50
2023-05-18T12:19:19.610Z,21.40
2023-05-18T12:21:47.150Z,21.60
2023-05-18T12:24:14.102Z,21.90
2023-05-18T12:26:41.207Z,22.00
2023-05-18T12:29:09.544Z,22.10
2023-05-18T12:31:40.583Z,22.00
2023-05-18T12:34:11.461Z,21.90
2023-05-18T12:36:43.212Z,21.60
2023-05-18T12:39:14.964Z,21.30
2023-05-18T12:41:41.914Z,21.00
2023-05-18T12:44:08.871Z,20.60
2023-05-18T12:46:35.884Z,20.60
2023-05-18T12:49:04.457Z,20.80
2023-05-18T12:51:37.358Z,20.80
2023-05-18T12:54:05.501Z,20.70
2023-05-18T12:57:02.063Z,20.60
2023-05-18T12:59:29.394Z,20.70
2023-05-18T13:01:56.761Z,21.00
2023-05-18T13:04:24.083Z,20.90
2023-05-18T13:06:56.947Z,20.80
2023-05-18T13:09:23.878Z,20.80
2023-05-18T13:12:03.603Z,21.00
2023-05-18T13:14:38.126Z,21.00
2023-05-18T13:17:05.212Z,21.00
2023-05-18T13:19:35.645Z,21.20
2023-05-18T13:22:04.349Z,21.50
2023-05-18T13:24:32.030Z,21.60
2023-05-18T13:26:59.001Z,22.20
2023-05-18T13:29:25.863Z,22.90
2023-05-18T13:31:52.762Z,23.40
2023-05-18T13:34:19.683Z,23.20
2023-05-18T13:36:46.688Z,23.00
2023-05-18T13:39:14.987Z,23.00
2023-05-18T13:41:42.057Z,23.30
2023-05-18T13:44:09.065Z,22.90
2023-05-18T13:46:37.872Z,22.70
2023-05-18T13:49:05.023Z,22.70
2023-05-18T13:51:31.896Z,22.70
2023-05-18T13:53:59.160Z,22.80
2023-05-18T13:56:27.647Z,22.40
2023-05-18T13:58:54.540Z,22.00
2023-05-18T14:01:22.266Z,21.70
2023-05-18T14:03:49.296Z,21.50
2023-05-18T14:06:16.423Z,21.50
2023-05-18T14:08:43.370Z,21.70
2023-05-18T14:11:10.355Z,22.20
2023-05-18T14:13:38.600Z,22.80
2023-05-18T14:16:06.348Z,22.90
2023-05-18T14:18:33.329Z,23.30
2023-05-18T14:21:02.261Z,23.30
2023-05-18T14:23:29.727Z,23.00
2023-05-18T14:25:56.633Z,22.70
2023-05-18T14:28:23.681Z,22.40
2023-05-18T14:30:51.968Z,22.20
2023-05-18T14:33:18.896Z,22.20
2023-05-18T14:35:46.136Z,22.10
2023-05-18T14:38:13.020Z,22.10
2023-05-18T14:40:39.910Z,22.20
2023-05-18T14:43:06.985Z,22.30
2023-05-18T14:45:33.982Z,22.00
2023-05-18T14:48:02.290Z,21.80
2023-05-18T14:50:29.608Z,21.60
2023-05-18T14:52:56.768Z,21.40
2023-05-18T14:55:23.671Z,21.30
2023-05-18T14:57:50.624Z,21.10
2023-05-18T15:00:17.992Z,20.80
2023-05-18T15:02:45.071Z,20.40
2023-05-18T15:05:13.381Z,19.90
2023-05-18T15:07:40.636Z,19.60
2023-05-18T15:10:09.121Z,19.40
2023-05-18T15:12:36.081Z,19.30
2023-05-18T15:15:03.212Z,19.30
2023-05-18T15:17:30.308Z,19.10
2023-05-18T15:19:57.221Z,19.10
2023-05-18T15:22:25.624Z,19.00
2023-05-18T15:24:52.526Z,18.80
2023-05-18T15:27:19.492Z,18.80
2023-05-18T15:29:48.337Z,18.60
2023-05-18T15:32:15.457Z,18.50
2023-05-18T15:34:42.395Z,18.40
2023-05-18T15:37:09.307Z,18.30
2023-05-18T15:39:38.700Z,18.30
2023-05-18T15:42:06.196Z,18.30
2023-05-18T15:44:33.446Z,18.10
2023-05-18T15:47:01.405Z,18.00
2023-05-18T15:49:28.592Z,17.80
2023-05-18T15:51:55.607Z,17.50
2023-05-18T15:54:22.560Z,17.40
2023-05-18T15:56:51.112Z,17.30
2023-05-18T15:59:17.960Z,17.30
2023-05-18T16:01:45.032Z,17.30
2023-05-18T16:04:12.019Z,17.20
2023-05-18T16:06:38.941Z,17.20
2023-05-18T16:09:06.036Z,17.20
2023-05-18T16:11:35.565Z,17.20
2023-05-18T16:14:04.430Z,17.20
2023-05-18T16:16:31.531Z,17.10
2023-05-18T16:19:00.651Z,17.10
2023-05-18T16:21:27.679Z,16.90
2023-05-18T16:23:54.656Z,16.90
2023-05-18T16:26:22.066Z,16.90
2023-05-18T16:28:49.048Z,16.90
2023-05-18T16:31:17.355Z,16.80
2023-05-18T16:33:44.312Z,16.80
2023-05-18T16:36:11.421Z,16.80
2023-05-18T16:38:39.148Z,16.70
2023-05-18T16:41:06.599Z,16.70
2023-05-18T16:43:33.956Z,16.70
2023-05-18T16:46:00.956Z,16.70
2023-05-18T16:48:29.236Z,16.70
2023-05-18T16:50:56.125Z,16.70
2023-05-18T16:53:23.008Z,16.60
2023-05-18T16:55:49.956Z,16.60
2023-05-18T16:58:16.839Z,16.60
2023-05-18T17:00:43.772Z,16.60
2023-05-18T17:03:10.683Z,16.60
2023-05-18T17:05:39.030Z,16.60
2023-05-18T17:08:05.911Z,16.60
2023-05-18T17:10:35.414Z,16.60
2023-05-18T17:13:02.453Z,16.50
2023-05-18T17:15:30.880Z,16.50
2023-05-18T17:17:58.067Z,16.50
2023-05-18T17:20:25.361Z,16.40
2023-05-18T17:22:53.627Z,16.40
2023-05-18T17:25:20.684Z,16.30
2023-05-18T17:27:47.570Z,16.40
2023-05-18T17:30:14.797Z,16.40
2023-05-18T17:32:42.069Z,16.30
2023-05-18T17:35:11.778Z,16.30
2023-05-18T17:37:41.280Z,16.30
2023-05-18T17:40:10.917Z,16.30
2023-05-18T17:42:37.852Z,16.30
2023-05-18T17:45:05.275Z,16.30
2023-05-18T17:47:32.218Z,16.30
2023-05-18T17:49:59.295Z,16.30
2023-05-18T17:52:26.447Z,16.40
2023-05-18T17:54:53.358Z,16.40
2023-05-18T17:57:22.925Z,16.40
2023-05-18T17:59:49.840Z,16.40
2023-05-18T18:02:17.052Z,16.40
2023-05-18T18:04:44.080Z,16.40
2023-05-18T18:07:11.448Z,16.40
2023-05-18T18:09:38.675Z,16.40
2023-05-18T18:12:05.983Z,16.40
2023-05-18T18:14:34.300Z,16.30
2023-05-18T18:17:01.257Z,16.30
2023-05-18T18:19:28.299Z,16.30
2023-05-18T18:21:55.308Z,16.30
2023-05-18T18:24:23.633Z,16.30
2023-05-18T18:26:52.571Z,16.30
2023-05-18T18:29:19.734Z,16.30
2023-05-18T18:31:47.948Z,16.30
2023-05-18T18:34:14.804Z,16.20
2023-05-18T18:36:41.962Z,16.20
2023-05-18T18:39:08.916Z,16.20
2023-05-18T18:41:35.880Z,16.20
2023-05-18T18:44:02.777Z,16.10
2023-05-18T18:46:29.701Z,16.10
2023-05-18T18:48:58.091Z,16.10
2023-05-18T18:51:25.081Z,16.10
2023-05-18T18:53:52.104Z,16.10
2023-05-18T18:56:20.796Z,16.00
2023-05-18T18:58:49.092Z,15.90
2023-05-18T19:01:16.039Z,15.90
2023-05-18T19:03:43.183Z,15.90
2023-05-18T19:06:11.514Z,15.90
2023-05-18T19:08:38.480Z,15.80
2023-05-18T19:11:05.482Z,15.80
2023-05-18T19:13:32.375Z,15.70
2023-05-18T19:15:59.583Z,15.70
2023-05-18T19:18:26.756Z,15.70
2023-05-18T19:20:53.706Z,15.70
2023-05-18T19:23:21.931Z,15.60
2023-05-18T19:25:48.907Z,15.60
2023-05-18T19:28:15.922Z,15.60
2023-05-18T19:30:43.385Z,15.50
2023-05-18T19:33:10.725Z,15.50
2023-05-18T19:35:37.768Z,15.40
2023-05-18T19:38:04.704Z,15.40
2023-05-18T19:40:32.967Z,15.30
2023-05-18T19:43:01.505Z,15.20
2023-05-18T19:45:28.624Z,15.20
2023-05-18T19:47:55.720Z,15.20
2023-05-18T19:50:22.694Z,15.20
2023-05-18T19:52:50.054Z,15.10
2023-05-18T19:55:17.146Z,15.10
2023-05-18T19:57:45.464Z,15.00
2023-05-18T20:00:12.761Z,15.00
2023-05-18T20:02:39.910Z,15.00
2023-05-18T20:05:07.449Z,14.90
2023-05-18T20:07:34.452Z,14.90
2023-05-18T20:10:01.404Z,14.90
2023-05-18T20:12:28.389Z,14.80
2023-05-18T20:14:56.633Z,14.80
2023-05-18T20:17:24.832Z,14.80
2023-05-18T20:19:52.087Z,14.80
2023-05-18T20:22:19.617Z,14.80
2023-05-18T20:24:46.617Z,14.80
2023-05-18T20:27:14.410Z,14.80
2023-05-18T20:29:41.397Z,14.80
2023-05-18T20:32:09.902Z,14.80
2023-05-18T20:34:36.961Z,14.80
2023-05-18T20:37:04.544Z,14.80
2023-05-18T20:39:32.282Z,14.80
2023-05-18T20:41:59.475Z,14.70
2023-05-18T20:44:28.636Z,14.70
2023-05-18T20:46:55.801Z,14.70
2023-05-18T20:49:24.900Z,14.60
2023-05-18T20:51:52.224Z,14.60
2023-05-18T20:54:21.126Z,14.50
2023-05-18T20:56:48.316Z,14.50
2023-05-18T20:59:16.072Z,14.50
2023-05-18T21:01:43.167Z,14.40
2023-05-18T21:04:12.578Z,14.40
2023-05-18T21:06:43.875Z,14.40
2023-05-18T21:09:10.907Z,14.40
2023-05-18T21:11:37.832Z,14.40
2023-05-18T21:14:04.714Z,14.30
2023-05-18T21:16:31.976Z,14.30
2023-05-18T21:18:59.029Z,14.40
2023-05-18T21:21:26.185Z,14.30
2023-05-18T21:23:54.440Z,14.30
2023-05-18T21:26:21.842Z,14.30
2023-05-18T21:28:48.866Z,14.30
2023-05-18T21:31:16.714Z,14.20
2023-05-18T21:33:47.804Z,14.30
2023-05-18T21:36:15.053Z,14.20
2023-05-18T21:38:41.960Z,14.20
2023-05-18T21:41:10.516Z,14.20
2023-05-18T21:43:37.427Z,14.30
2023-05-18T21:46:04.687Z,14.30
2023-05-18T21:48:32.416Z,14.30
2023-05-18T21:50:59.292Z,14.30
2023-05-18T21:53:26.255Z,14.30
2023-05-18T21:55:53.311Z,14.30
2023-05-18T21:58:21.519Z,14.30
2023-05-18T22:00:48.385Z,14.30
2023-05-18T22:03:15.459Z,14.30
2023-05-18T22:05:44.615Z,14.30
2023-05-18T22:08:11.527Z,14.30
2023-05-18T22:10:38.488Z,14.30
2023-05-18T22:13:05.303Z,14.30
2023-05-18T22:15:35.908Z,14.30
2023-05-18T22:18:02.938Z,14.30
2023-05-18T22:20:33.865Z,14.30
2023-05-18T22:23:01.098Z,14.30
2023-05-18T22:25:28.107Z,14.30
2023-05-18T22:27:55.470Z,14.30
2023-05-18T22:30:25.480Z,14.20
2023-05-18T22:32:53.774Z,14.20
2023-05-18T22:35:20.902Z,14.20
2023-05-18T22:37:47.711Z,14.20
2023-05-18T22:40:14.623Z,14.20
2023-05-18T22:42:41.457Z,14.10
2023-05-18T22:45:09.827Z,14.10
2023-05-18T22:47:37.419Z,14.10
2023-05-18T22:50:07.387Z,14.10
2023-05-18T22:52:34.856Z,14.10
2023-05-18T22:55:01.961Z,14.10
2023-05-18T22:57:28.870Z,14.10
2023-05-18T22:59:55.777Z,14.10
2023-05-18T23:02:22.617Z,14.10
2023-05-18T23:04:49.524Z,14.10
2023-05-18T23:07:17.838Z,14.10
2023-05-18T23:09:44.770Z,14.00
2023-05-18T23:12:11.675Z,14.00
2023-05-18T23:14:39.380Z,14.00
2023-05-18T23:17:07.258Z,14.00
2023-05-18T23:19:34.983Z,14.00
2023-05-18T23:22:02.183Z,14.00
2023-05-18T23:24:30.392Z,13.90
2023-05-18T23:26:58.140Z,13.80
2023-05-18T23:29:25.003Z,13.80
2023-05-18T23:31:52.359Z,13.70
2023-05-18T23:34:19.785Z,13.70
2023-05-18T23:36:53.524Z,13.60
2023-05-18T23:39:22.132Z,13.60
2023-05-18T23:41:52.925Z,13.60
2023-05-18T23:44:20.622Z,13.60
2023-05-18T23:46:48.097Z,13.60
2023-05-18T23:49:15.306Z,13.50
2023-05-18T23:51:43.507Z,13.50
2023-05-18T23:54:11.080Z,13.50
2023-05-18T23:56:38.661Z,13.50
2023-05-18T23:59:07.636Z,13.50
